createdAt,value
2022-08-07T00:02:36.987Z,49.55
2022-08-07T00:04:15.399Z,49.42
2022-08-07T00:06:20.491Z,49.61
2022-08-07T00:08:33.382Z,49.47
2022-08-07T00:10:47.770Z,50.06
2022-08-07T00:13:00.607Z,50.44
2022-08-07T00:15:05.762Z,50.49
2022-08-07T00:17:09.295Z,51.05
2022-08-07T00:19:21.294Z,49.99
2022-08-07T00:21:56.329Z,50.53
2022-08-07T00:23:48.764Z,50.75
2022-08-07T00:26:01.537Z,51.02
2022-08-07T00:28:10.652Z,50.55
2022-08-07T00:30:21.920Z,50.46
2022-08-07T00:32:31.497Z,50.80
2022-08-07T00:34:38.658Z,51.66
2022-08-07T00:36:43.193Z,51.15
2022-08-07T00:38:47.127Z,51.95
2022-08-07T00:40:54.033Z,51.15
2022-08-07T00:42:57.895Z,52.20
2022-08-07T00:45:07.049Z,51.77
2022-08-07T00:47:16.165Z,51.35
2022-08-07T00:50:19.127Z,51.19
2022-08-07T00:51:59.198Z,51.91
2022-08-07T00:54:02.870Z,51.52
2022-08-07T00:56:13.864Z,52.13
2022-08-07T00:58:20.587Z,52.05
2022-08-07T01:00:26.136Z,52.76
2022-08-07T01:02:30.885Z,52.47
2022-08-07T01:04:40.092Z,52.53
2022-08-07T01:06:47.204Z,52.93
2022-08-07T01:08:53.211Z,53.07
2022-08-07T01:10:58.445Z,52.66
2022-08-07T01:13:16.348Z,53.19
2022-08-07T01:15:21.882Z,53.15
2022-08-07T01:17:28.039Z,52.87
2022-08-07T01:19:34.877Z,53.01
2022-08-07T01:21:47.185Z,53.40
2022-08-07T01:23:51.808Z,51.92
2022-08-07T01:25:56.435Z,52.68
2022-08-07T01:28:01.241Z,53.37
2022-08-07T01:30:07.713Z,54.01
2022-08-07T01:32:14.537Z,53.34
2022-08-07T01:34:23.997Z,54.30
2022-08-07T01:36:40.502Z,54.26
2022-08-07T01:38:52.558Z,54.67
2022-08-07T01:41:02.312Z,53.26
2022-08-07T01:43:06.512Z,54.25
2022-08-07T01:45:17.762Z,54.24
2022-08-07T01:48:19.995Z,53.43
2022-08-07T01:49:53.551Z,54.10
2022-08-07T01:52:04.935Z,54.96
2022-08-07T01:54:32.594Z,54.73
2022-08-07T01:56:49.215Z,54.71
2022-08-07T01:58:58.449Z,54.63
2022-08-07T02:01:09.265Z,54.74
2022-08-07T02:03:32.158Z,55.29
2022-08-07T02:05:59.885Z,55.26
2022-08-07T02:08:13.961Z,56.19
2022-08-07T02:10:24.832Z,55.37
2022-08-07T02:12:31.348Z,54.61
2022-08-07T02:14:40.709Z,55.67
2022-08-07T02:16:52.436Z,56.79
2022-08-07T02:18:57.325Z,57.71
2022-08-07T02:21:06.339Z,57.48
2022-08-07T02:23:12.700Z,56.11
2022-08-07T02:26:10.547Z,56.29
2022-08-07T02:27:53.749Z,56.65
2022-08-07T02:30:03.958Z,55.97
2022-08-07T02:32:13.675Z,56.35
2022-08-07T02:34:20.166Z,56.39
2022-08-07T02:36:32.891Z,55.75
2022-08-07T02:38:56.569Z,57.19
2022-08-07T02:41:04.670Z,56.15
2022-08-07T02:43:11.209Z,56.69
2022-08-07T02:46:00.504Z,56.92
2022-08-07T02:47:48.892Z,59.08
2022-08-07T02:49:57.901Z,58.70
2022-08-07T02:52:09.910Z,57.95
2022-08-07T02:54:21.470Z,58.48
2022-08-07T02:56:32.994Z,57.74
2022-08-07T02:58:39.663Z,58.20
2022-08-07T03:00:53.757Z,59.43
2022-08-07T03:02:58.352Z,58.24
2022-08-07T03:05:06.584Z,57.73
2022-08-07T03:07:11.649Z,57.95
2022-08-07T03:09:43.496Z,57.61
2022-08-07T03:11:52.236Z,58.28
2022-08-07T03:14:05.577Z,57.75
2022-08-07T03:16:10.953Z,58.10
2022-08-07T03:18:20.006Z,58.00
2022-08-07T03:20:25.712Z,57.40
2022-08-07T03:22:30.756Z,59.30
2022-08-07T03:24:36.691Z,58.83
2022-08-07T03:26:51.095Z,59.47
2022-08-07T03:29:10.397Z,58.32
2022-08-07T03:31:19.521Z,57.71
2022-08-07T03:33:32.270Z,58.44
2022-08-07T03:35:50.590Z,60.24
2022-08-07T03:38:01.717Z,59.72
2022-08-07T03:40:16.144Z,59.88
2022-08-07T03:42:21.767Z,60.17
2022-08-07T03:44:34.210Z,59.50
2022-08-07T03:47:14.242Z,60.29
2022-08-07T03:49:05.589Z,59.44
2022-08-07T03:51:17.762Z,59.03
2022-08-07T03:53:49.936Z,59.31
2022-08-07T03:55:58.328Z,58.94
2022-08-07T03:59:07.201Z,58.72
2022-08-07T04:00:36.901Z,59.04
2022-08-07T04:02:43.136Z,59.98
2022-08-07T04:04:59.386Z,59.91
2022-08-07T04:07:07.562Z,59.78
2022-08-07T04:09:23.468Z,60.88
2022-08-07T04:12:24.813Z,59.46
2022-08-07T04:14:33.203Z,60.62
2022-08-07T04:16:31.078Z,61.03
2022-08-07T04:18:59.110Z,60.99
2022-08-07T04:21:07.335Z,62.36
2022-08-07T04:23:19.390Z,61.35
2022-08-07T04:25:29.313Z,60.76
2022-08-07T04:27:43.907Z,61.28
2022-08-07T04:30:01.405Z,60.95
2022-08-07T04:32:34.692Z,60.19
2022-08-07T04:34:40.539Z,61.12
2022-08-07T04:36:45.247Z,60.35
2022-08-07T04:38:49.296Z,60.72
2022-08-07T04:40:56.500Z,59.72
2022-08-07T04:43:18.639Z,59.36
2022-08-07T04:45:57.675Z,61.04
2022-08-07T04:48:10.653Z,62.58
2022-08-07T04:50:23.813Z,62.38
2022-08-07T04:52:53.253Z,61.58
2022-08-07T04:55:15.481Z,61.89
2022-08-07T04:58:12.970Z,61.15
2022-08-07T05:00:29.979Z,60.45
2022-08-07T05:02:49.873Z,60.75
2022-08-07T05:05:11.950Z,61.73
2022-08-07T05:07:44.208Z,61.17
2022-08-07T05:10:00.707Z,61.65
2022-08-07T05:12:10.616Z,62.27
2022-08-07T05:14:55.527Z,61.32
2022-08-07T05:16:52.653Z,62.33
2022-08-07T05:19:01.512Z,62.03
2022-08-07T05:21:10.849Z,61.98
2022-08-07T05:23:23.241Z,60.93
2022-08-07T05:26:13.471Z,61.04
2022-08-07T05:28:03.144Z,60.37
2022-08-07T05:30:30.174Z,59.69
2022-08-07T05:32:39.723Z,61.42
2022-08-07T05:34:44.734Z,61.13
2022-08-07T05:36:52.957Z,61.06
2022-08-07T05:40:06.423Z,61.03
2022-08-07T05:42:01.619Z,61.40
2022-08-07T05:44:12.641Z,61.69
2022-08-07T05:46:21.821Z,61.42
2022-08-07T05:48:31.168Z,61.38
2022-08-07T05:50:39.568Z,61.18
2022-08-07T05:52:49.300Z,60.98
2022-08-07T05:54:56.073Z,61.06
2022-08-07T05:57:07.350Z,61.03
2022-08-07T05:59:20.779Z,59.90
2022-08-07T06:01:35.647Z,58.88
2022-08-07T06:03:53.848Z,57.71
2022-08-07T06:06:04.854Z,58.41
2022-08-07T06:08:31.449Z,57.02
2022-08-07T06:10:37.640Z,57.82
2022-08-07T06:12:43.796Z,57.36
2022-08-07T06:14:49.457Z,56.12
2022-08-07T06:16:56.285Z,57.58
2022-08-07T06:19:17.997Z,56.86
2022-08-07T06:22:16.208Z,55.30
2022-08-07T06:24:46.178Z,56.23
2022-08-07T06:26:28.996Z,54.65
2022-08-07T06:28:34.554Z,54.88
2022-08-07T06:30:45.421Z,55.57
2022-08-07T06:32:54.183Z,53.73
2022-08-07T06:34:57.853Z,53.92
2022-08-07T06:37:02.583Z,53.79
2022-08-07T06:40:16.275Z,53.75
2022-08-07T06:42:02.939Z,53.99
2022-08-07T06:44:25.801Z,55.54
2022-08-07T06:46:35.317Z,52.81
2022-08-07T06:48:41.819Z,52.74
2022-08-07T06:50:49.842Z,52.56
2022-08-07T06:53:00.258Z,52.56
2022-08-07T06:55:33.423Z,53.52
2022-08-07T06:57:48.317Z,52.86
2022-08-07T07:00:17.710Z,51.25
2022-08-07T07:02:48.712Z,51.57
2022-08-07T07:04:55.165Z,51.34
2022-08-07T07:07:01.077Z,52.09
2022-08-07T07:09:18.832Z,51.11
2022-08-07T07:12:07.622Z,50.73
2022-08-07T07:13:58.600Z,52.28
2022-08-07T07:16:10.477Z,50.97
2022-08-07T07:18:37.682Z,50.90
2022-08-07T07:20:50.697Z,50.30
2022-08-07T07:24:05.203Z,50.89
2022-08-07T07:26:35.203Z,50.15
2022-08-07T07:27:56.207Z,49.43
2022-08-07T07:30:09.929Z,49.63
2022-08-07T07:32:17.128Z,49.46
2022-08-07T07:34:31.173Z,49.41
2022-08-07T07:36:40.466Z,49.75
2022-08-07T07:38:46.071Z,48.75
2022-08-07T07:40:52.948Z,48.46
2022-08-07T07:43:11.606Z,47.67
2022-08-07T07:46:35.549Z,46.85
2022-08-07T07:47:52.735Z,47.05
2022-08-07T07:50:36.253Z,47.25
2022-08-07T07:52:24.207Z,46.16
2022-08-07T07:54:29.243Z,45.16
2022-08-07T07:56:35.405Z,45.67
2022-08-07T07:58:41.161Z,45.98
2022-08-07T08:00:48.695Z,44.51
2022-08-07T08:03:04.702Z,46.00
2022-08-07T08:05:15.055Z,44.93
2022-08-07T08:07:20.160Z,43.50
2022-08-07T08:09:29.336Z,42.90
2022-08-07T08:11:47.205Z,42.70
2022-08-07T08:13:58.958Z,42.41
2022-08-07T08:16:06.486Z,42.14
2022-08-07T08:18:18.506Z,42.06
2022-08-07T08:20:27.416Z,41.85
2022-08-07T08:22:57.108Z,42.23
2022-08-07T08:25:27.002Z,41.89
2022-08-07T08:27:56.763Z,41.07
2022-08-07T08:30:09.211Z,41.59
2022-08-07T08:32:25.367Z,41.26
2022-08-07T08:34:31.332Z,42.14
2022-08-07T08:36:37.050Z,42.05
2022-08-07T08:38:45.606Z,41.89
2022-08-07T08:40:56.041Z,41.63
2022-08-07T08:43:09.962Z,41.60
2022-08-07T08:45:22.599Z,41.16
2022-08-07T08:47:51.935Z,40.78
2022-08-07T08:50:09.894Z,41.02
2022-08-07T08:52:23.276Z,40.81
2022-08-07T08:54:39.406Z,40.17
2022-08-07T08:56:48.319Z,40.44
2022-08-07T08:58:58.666Z,40.58
2022-08-07T09:01:15.726Z,39.90
2022-08-07T09:03:48.085Z,40.41
2022-08-07T09:05:56.924Z,39.94
2022-08-07T09:08:12.123Z,39.67
2022-08-07T09:10:26.452Z,39.66
2022-08-07T09:12:53.098Z,39.79
2022-08-07T09:16:21.958Z,39.01
2022-08-07T09:17:59.506Z,38.77
2022-08-07T09:20:34.991Z,37.60
2022-08-07T09:24:31.971Z,37.72
2022-08-07T09:25:18.283Z,37.68
2022-08-07T09:27:54.948Z,36.08
2022-08-07T09:30:08.406Z,35.68
2022-08-07T09:32:23.749Z,35.42
2022-08-07T09:34:45.391Z,35.41
2022-08-07T09:37:04.185Z,35.84
2022-08-07T09:39:53.672Z,36.25
2022-08-07T09:42:02.929Z,36.66
2022-08-07T09:44:32.899Z,35.88
2022-08-07T09:47:51.688Z,36.25
2022-08-07T09:50:02.402Z,35.44
2022-08-07T09:52:33.323Z,35.99
2022-08-07T09:54:45.360Z,35.42
2022-08-07T09:57:22.900Z,34.95
2022-08-07T09:59:46.675Z,34.45
2022-08-07T10:02:19.429Z,34.95
2022-08-07T10:04:54.997Z,34.25
2022-08-07T10:07:26.262Z,34.95
2022-08-07T10:10:00.824Z,33.48
2022-08-07T10:12:21.913Z,32.92
2022-08-07T10:14:54.190Z,33.26
2022-08-07T10:17:14.159Z,33.50
2022-08-07T10:19:37.743Z,33.03
2022-08-07T10:22:15.573Z,32.83
2022-08-07T10:24:45.476Z,32.81
2022-08-07T10:26:58.866Z,32.54
2022-08-07T10:29:19.032Z,32.29
2022-08-07T10:31:53.251Z,32.55
2022-08-07T10:34:17.862Z,31.65
2022-08-07T10:36:36.434Z,31.81
2022-08-07T10:38:52.050Z,31.83
2022-08-07T10:41:07.273Z,31.85
2022-08-07T10:43:19.478Z,31.16
2022-08-07T10:45:44.362Z,31.10
2022-08-07T10:48:14.472Z,30.83
2022-08-07T10:50:26.294Z,30.58
2022-08-07T10:52:40.095Z,30.83
2022-08-07T10:55:01.655Z,30.61
2022-08-07T10:57:15.443Z,30.21
2022-08-07T10:59:30.434Z,29.60
2022-08-07T11:01:52.060Z,29.87
2022-08-07T11:04:31.959Z,30.08
2022-08-07T11:06:46.268Z,30.44
2022-08-07T11:08:59.976Z,29.01
2022-08-07T11:11:10.020Z,29.54
2022-08-07T11:14:42.090Z,29.87
2022-08-07T11:15:54.285Z,29.81
2022-08-07T11:18:04.549Z,29.75
2022-08-07T11:20:15.561Z,29.53
2022-08-07T11:22:32.468Z,29.78
2022-08-07T11:24:51.868Z,30.10
2022-08-07T11:27:03.170Z,29.94
2022-08-07T11:29:13.064Z,30.49
2022-08-07T11:31:42.709Z,29.73
2022-08-07T11:34:00.296Z,30.32
2022-08-07T11:36:20.548Z,28.93
2022-08-07T11:38:34.495Z,28.71
2022-08-07T11:40:49.871Z,28.71
2022-08-07T11:43:00.823Z,28.68
2022-08-07T11:45:20.504Z,27.93
2022-08-07T11:47:56.662Z,27.30
2022-08-07T11:50:32.755Z,28.41
2022-08-07T11:52:51.290Z,28.36
2022-08-07T11:55:13.192Z,28.13
2022-08-07T11:57:58.039Z,27.64
2022-08-07T12:00:19.530Z,28.09
2022-08-07T12:02:37.057Z,27.61
2022-08-07T12:04:57.408Z,28.10
2022-08-07T12:07:09.125Z,27.28
2022-08-07T12:09:31.723Z,27.67
2022-08-07T12:11:43.486Z,27.51
2022-08-07T12:14:19.164Z,27.35
2022-08-07T12:16:30.709Z,27.42
2022-08-07T12:18:39.130Z,27.36
2022-08-07T12:20:57.173Z,26.92
2022-08-07T12:24:05.981Z,26.52
2022-08-07T12:26:02.797Z,26.18
2022-08-07T12:28:30.848Z,26.74
2022-08-07T12:30:40.402Z,25.95
2022-08-07T12:32:59.005Z,26.23
2022-08-07T12:35:05.691Z,25.59
2022-08-07T12:37:16.565Z,26.35
2022-08-07T12:39:42.715Z,25.98
2022-08-07T12:41:51.909Z,26.21
2022-08-07T12:44:03.455Z,26.27
2022-08-07T12:46:31.994Z,26.27
2022-08-07T12:48:51.934Z,25.31
2022-08-07T12:51:17.172Z,25.05
2022-08-07T12:53:30.222Z,24.99
2022-08-07T12:56:09.250Z,26.27
2022-08-07T12:58:18.026Z,25.87
2022-08-07T13:00:32.726Z,25.77
2022-08-07T13:03:00.908Z,26.75
2022-08-07T13:06:03.305Z,25.48
2022-08-07T13:08:12.555Z,25.22
2022-08-07T13:10:39.527Z,24.45
2022-08-07T13:12:58.002Z,24.65
2022-08-07T13:15:07.976Z,25.03
2022-08-07T13:17:21.310Z,25.50
2022-08-07T13:19:50.551Z,24.87
2022-08-07T13:22:12.698Z,24.38
2022-08-07T13:24:29.409Z,24.85
2022-08-07T13:26:41.696Z,24.48
2022-08-07T13:28:58.162Z,24.71
2022-08-07T13:31:06.380Z,24.19
2022-08-07T13:34:33.141Z,24.22
2022-08-07T13:35:59.565Z,24.05
2022-08-07T13:38:15.074Z,23.91
2022-08-07T13:40:34.346Z,24.10
2022-08-07T13:42:47.302Z,24.24
2022-08-07T13:45:11.561Z,24.30
2022-08-07T13:47:25.199Z,24.41
2022-08-07T13:50:33.065Z,24.24
2022-08-07T13:52:16.395Z,23.70
2022-08-07T13:54:33.520Z,24.17
2022-08-07T13:56:51.958Z,24.11
2022-08-07T13:59:05.492Z,23.55
2022-08-07T14:01:13.508Z,23.18
2022-08-07T14:03:30.069Z,23.35
2022-08-07T14:05:46.346Z,23.34
2022-08-07T14:08:00.122Z,23.63
2022-08-07T14:10:21.637Z,23.23
2022-08-07T14:12:42.025Z,23.08
2022-08-07T14:14:57.143Z,22.99
2022-08-07T14:17:13.051Z,23.47
2022-08-07T14:20:43.229Z,23.88
2022-08-07T14:22:12.467Z,23.89
2022-08-07T14:24:33.347Z,23.07
2022-08-07T14:26:50.316Z,22.51
2022-08-07T14:28:57.461Z,22.71
2022-08-07T14:31:05.888Z,22.60
2022-08-07T14:33:10.161Z,22.81
2022-08-07T14:35:43.312Z,22.44
2022-08-07T14:38:05.542Z,22.83
2022-08-07T14:40:26.586Z,23.24
2022-08-07T14:42:35.506Z,22.44
2022-08-07T14:47:27.719Z,21.86
2022-08-07T14:49:57.133Z,21.55
2022-08-07T14:52:02.790Z,21.97
2022-08-07T14:54:34.462Z,22.03
2022-08-07T14:56:35.183Z,21.89
2022-08-07T14:58:42.629Z,20.92
2022-08-07T15:00:51.576Z,21.36
2022-08-07T15:02:58.247Z,22.06
2022-08-07T15:05:02.334Z,21.64
2022-08-07T15:07:17.803Z,21.38
2022-08-07T15:12:01.489Z,21.92
2022-08-07T15:14:10.825Z,21.51
2022-08-07T15:16:20.166Z,22.11
2022-08-07T15:18:41.915Z,21.50
2022-08-07T15:20:55.026Z,21.20
2022-08-07T15:23:20.146Z,21.09
2022-08-07T15:28:36.294Z,21.57
2022-08-07T15:30:28.579Z,21.40
2022-08-07T15:35:06.569Z,21.78
2022-08-07T15:37:12.148Z,21.61
2022-08-07T15:39:17.671Z,21.91
2022-08-07T15:42:44.932Z,22.18
2022-08-07T15:44:02.234Z,21.83
2022-08-07T15:51:11.856Z,21.95
2022-08-07T15:53:21.685Z,21.96
2022-08-07T15:55:53.429Z,21.77
2022-08-07T15:58:00.256Z,22.13
2022-08-07T16:00:07.094Z,21.58
2022-08-07T16:02:15.482Z,21.95
2022-08-07T16:04:20.606Z,21.73
2022-08-07T16:06:31.110Z,21.45
2022-08-07T16:08:38.338Z,21.96
2022-08-07T16:10:48.648Z,21.91
2022-08-07T16:13:05.448Z,21.79
2022-08-07T16:15:55.293Z,21.72
2022-08-07T16:18:09.301Z,21.87
2022-08-07T16:21:43.712Z,22.13
2022-08-07T16:23:53.572Z,22.17
2022-08-07T16:26:06.349Z,21.77
2022-08-07T16:30:05.663Z,21.66
2022-08-07T16:30:53.451Z,22.10
2022-08-07T16:34:01.306Z,21.71
2022-08-07T16:35:52.132Z,21.59
2022-08-07T16:38:38.973Z,21.25
2022-08-07T16:41:12.679Z,21.01
2022-08-07T16:44:03.787Z,21.21
2022-08-07T16:47:05.985Z,21.69
2022-08-07T16:50:27.541Z,21.93
2022-08-07T16:52:48.701Z,22.05
2022-08-07T16:54:54.213Z,21.86
2022-08-07T16:58:01.037Z,22.40
2022-08-07T16:59:55.837Z,21.72
2022-08-07T17:02:11.846Z,21.85
2022-08-07T17:04:32.055Z,21.64
2022-08-07T17:06:57.896Z,22.18
2022-08-07T17:10:05.433Z,22.05
2022-08-07T17:12:01.483Z,22.09
2022-08-07T17:14:19.037Z,22.46
2022-08-07T17:16:27.063Z,22.21
2022-08-07T17:18:37.128Z,22.39
2022-08-07T17:20:42.417Z,22.32
2022-08-07T17:23:03.830Z,22.32
2022-08-07T17:25:17.651Z,21.96
2022-08-07T17:27:35.315Z,21.81
2022-08-07T17:30:14.723Z,22.11
2022-08-07T17:32:35.318Z,22.25
2022-08-07T17:35:32.957Z,22.15
2022-08-07T17:38:05.776Z,22.76
2022-08-07T17:39:53.218Z,22.15
2022-08-07T17:42:12.917Z,22.50
2022-08-07T17:44:41.290Z,21.99
2022-08-07T17:46:55.801Z,22.32
2022-08-07T17:49:09.525Z,22.48
2022-08-07T17:51:23.019Z,22.87
2022-08-07T17:54:01.039Z,23.32
2022-08-07T17:56:12.320Z,23.60
2022-08-07T17:58:30.552Z,23.53
2022-08-07T18:00:48.702Z,23.84
2022-08-07T18:02:57.715Z,24.29
2022-08-07T18:05:21.079Z,24.27
2022-08-07T18:07:38.072Z,24.28
2022-08-07T18:10:06.310Z,24.42
2022-08-07T18:12:27.881Z,24.64
2022-08-07T18:14:45.045Z,25.26
2022-08-07T18:16:57.490Z,25.04
2022-08-07T18:21:08.287Z,25.40
2022-08-07T18:21:58.337Z,25.29
2022-08-07T18:24:07.010Z,25.75
2022-08-07T18:26:16.486Z,26.10
2022-08-07T18:28:35.844Z,26.08
2022-08-07T18:30:50.171Z,26.09
2022-08-07T18:33:27.039Z,26.77
2022-08-07T18:35:51.712Z,26.77
2022-08-07T18:38:59.265Z,26.87
2022-08-07T18:40:53.654Z,27.57
2022-08-07T18:43:12.241Z,27.81
2022-08-07T18:45:43.908Z,28.77
2022-08-07T18:48:01.333Z,28.94
2022-08-07T18:50:38.726Z,30.03
2022-08-07T18:53:04.553Z,30.62
2022-08-07T18:55:40.646Z,31.33
2022-08-07T18:57:58.573Z,32.00
2022-08-07T19:00:34.418Z,32.08
2022-08-07T19:02:42.468Z,32.43
2022-08-07T19:05:10.464Z,32.43
2022-08-07T19:07:34.415Z,32.71
2022-08-07T19:09:57.702Z,33.20
2022-08-07T19:12:12.289Z,33.41
2022-08-07T19:14:23.768Z,33.56
2022-08-07T19:17:06.908Z,33.68
2022-08-07T19:19:16.392Z,33.79
2022-08-07T19:21:55.834Z,34.45
2022-08-07T19:24:07.761Z,34.14
2022-08-07T19:26:22.808Z,34.60
2022-08-07T19:30:57.966Z,34.61
2022-08-07T19:31:39.546Z,35.04
2022-08-07T19:33:41.923Z,35.17
2022-08-07T19:35:52.855Z,35.03
2022-08-07T19:37:59.530Z,35.35
2022-08-07T19:40:05.987Z,35.53
2022-08-07T19:42:24.552Z,35.65
2022-08-07T19:44:41.135Z,35.71
2022-08-07T19:46:55.860Z,35.76
2022-08-07T19:49:06.510Z,36.13
2022-08-07T19:51:19.230Z,35.88
2022-08-07T19:54:32.371Z,36.14
2022-08-07T19:55:57.750Z,36.43
2022-08-07T19:58:13.473Z,36.51
2022-08-07T20:00:28.836Z,36.76
2022-08-07T20:02:39.154Z,36.90
2022-08-07T20:04:46.282Z,37.10
2022-08-07T20:06:55.253Z,37.14
2022-08-07T20:09:03.080Z,37.36
2022-08-07T20:11:12.196Z,37.40
2022-08-07T20:13:27.134Z,37.45
2022-08-07T20:15:37.440Z,37.93
2022-08-07T20:17:43.691Z,38.46
2022-08-07T20:19:58.537Z,37.91
2022-08-07T20:22:03.365Z,38.00
2022-08-07T20:24:16.546Z,38.43
2022-08-07T20:26:32.833Z,38.34
2022-08-07T20:28:45.169Z,38.31
2022-08-07T20:30:50.714Z,38.39
2022-08-07T20:32:56.815Z,38.61
2022-08-07T20:35:08.452Z,38.29
2022-08-07T20:37:15.189Z,38.57
2022-08-07T20:40:01.046Z,38.84
2022-08-07T20:41:49.236Z,38.88
2022-08-07T20:43:57.313Z,38.67
2022-08-07T20:46:26.518Z,39.17
2022-08-07T20:48:30.848Z,38.99
2022-08-07T20:50:40.486Z,39.05
2022-08-07T20:52:51.354Z,39.04
2022-08-07T20:54:57.038Z,39.74
2022-08-07T20:57:08.228Z,39.21
2022-08-07T21:00:05.089Z,38.92
2022-08-07T21:01:45.663Z,39.41
2022-08-07T21:04:21.938Z,39.39
2022-08-07T21:06:31.593Z,40.25
2022-08-07T21:08:39.346Z,39.76
2022-08-07T21:10:46.262Z,39.95
2022-08-07T21:12:52.337Z,40.39
2022-08-07T21:14:59.693Z,39.71
2022-08-07T21:18:04.069Z,40.15
2022-08-07T21:19:50.765Z,40.72
2022-08-07T21:21:59.985Z,40.82
2022-08-07T21:24:10.122Z,39.94
2022-08-07T21:26:22.830Z,40.40
2022-08-07T21:28:49.299Z,40.18
2022-08-07T21:31:02.363Z,40.89
2022-08-07T21:33:15.240Z,40.54
2022-08-07T21:35:34.809Z,40.35
2022-08-07T21:38:00.768Z,40.71
2022-08-07T21:40:09.957Z,41.24
2022-08-07T21:42:42.813Z,40.83
2022-08-07T21:44:55.022Z,40.88
2022-08-07T21:47:12.346Z,41.30
2022-08-07T21:49:28.123Z,41.56
2022-08-07T21:51:51.363Z,41.94
2022-08-07T21:54:18.841Z,41.66
2022-08-07T21:56:36.656Z,41.87
2022-08-07T21:58:53.791Z,42.17
2022-08-07T22:01:01.783Z,42.25
2022-08-07T22:03:16.803Z,42.14
2022-08-07T22:05:45.489Z,42.49
2022-08-07T22:07:58.559Z,42.49
2022-08-07T22:10:08.026Z,42.64
2022-08-07T22:12:16.300Z,42.82
2022-08-07T22:14:34.553Z,42.83
2022-08-07T22:16:47.716Z,43.20
2022-08-07T22:19:01.159Z,42.91
2022-08-07T22:21:15.531Z,43.18
2022-08-07T22:23:23.717Z,43.54
2022-08-07T22:25:38.898Z,43.73
2022-08-07T22:28:07.990Z,43.94
2022-08-07T22:30:17.611Z,44.14
2022-08-07T22:32:27.518Z,44.04
2022-08-07T22:34:49.407Z,44.71
2022-08-07T22:37:09.326Z,44.37
2022-08-07T22:39:23.483Z,44.51
2022-08-07T22:42:03.958Z,44.56
2022-08-07T22:44:04.366Z,44.60
2022-08-07T22:47:02.924Z,44.91
2022-08-07T22:49:11.252Z,45.09
2022-08-07T22:51:39.084Z,45.24
2022-08-07T22:54:07.137Z,45.06
2022-08-07T22:56:23.637Z,45.23
2022-08-07T22:59:04.905Z,45.54
2022-08-07T23:01:49.476Z,45.47
2022-08-07T23:04:09.371Z,45.70
2022-08-07T23:06:26.298Z,45.77
2022-08-07T23:08:47.833Z,46.17
2022-08-07T23:11:10.063Z,45.98
2022-08-07T23:13:48.628Z,45.72
2022-08-07T23:16:46.841Z,46.14
2022-08-07T23:19:11.111Z,46.17
2022-08-07T23:21:29.963Z,46.31
2022-08-07T23:24:11.814Z,46.53
2022-08-07T23:26:25.133Z,46.46
2022-08-07T23:28:54.402Z,46.73
2022-08-07T23:32:48.656Z,46.41
2022-08-07T23:34:21.909Z,46.23
2022-08-07T23:36:43.264Z,46.45
2022-08-07T23:38:57.302Z,46.48
2022-08-07T23:41:16.347Z,46.86
2022-08-07T23:43:55.584Z,46.81
2022-08-07T23:46:19.962Z,46.96
2022-08-07T23:48:47.079Z,47.29
2022-08-07T23:50:55.296Z,47.18
2022-08-07T23:53:08.680Z,47.09
2022-08-07T23:55:52.987Z,47.35
2022-08-07T23:57:56.980Z,47.76
